Indianapolis, Indiana
Traffic Map
Current Weather Conditions
Indianapolis, Indiana
Broken Clouds
Broken Clouds
21°
Feels Like: 21°
Wind Chill: 21° Ceiling: 19000
Heat Index: 21° Visibility: 10mi
Dew Point: 17° Wind: 6mph
Humidity: 78% Direction: 230° (SW)
Pressure: 29.93in Gusts: 0mph
Raw Report DataKIND 190454Z 23005KT 10SM BKN190 21/17 A2993 RMK AO2 SLP128 T02110172 402940189
Traffic Incident Summary
Active as of:
Severity:
Category:
InformationThere was an issue retrieving the traffic information for this location. Please try a different location or try again shortly.
Advertisements